»·PEaware :: AAY717 KBUF-KDCA

AAY717 :: KBUF-KDCA

FLIGHT INFORMATION

Flight Status: Arrived
Operator:
Allegiant Air
More flights by this operator :: More flights under this callsign
Pilot: Ty S. (2873)
Aircraft: MCDONNELL-DOUGLAS MD-88
(MD88)
More flights by this aircraft type
Origin: KBUF Buffalo Niagara Intl
United States
Destination: KDCA Ronald Reagan Washington Natl
United States
More flights between these airports :: More routes between these airports
Route: VAIRS BFD ETG PSB SKILS2
File this flight plan on PilotEdge
Remarks:
Altitude:
(Current/Filed)
27,000ft
Speed:
(Current/Filed)
440kts
Departed: 09-Dec-15 03:49 PM
Arrived: 09-Dec-15 04:46 PM
Distance/Time
Traveled:
257nm/0:57
Distance/Time
To Go:
Arrived

Flight Plot

Page will automatically refresh every two minutes.


Map Options




Map Legend


Flown Route
Filed Route
Departure Airport
Arrival Airport
Navaid (VOR, NDB)
Fix

Horizontal Profiles

Position Reports

Time Latitude Longitude Heading Altitude Ground
Speed
09-Dec-15 15:06 42.935463 -78.730000 313 730ft 0kts
09-Dec-15 15:07 42.935463 -78.730000 313 730ft 0kts
09-Dec-15 15:08 42.935463 -78.730000 313 730ft 0kts
09-Dec-15 15:09 42.935463 -78.730000 313 730ft 0kts
09-Dec-15 15:10 42.935463 -78.730000 313 730ft 0kts
09-Dec-15 15:11 42.935463 -78.730000 313 730ft 0kts
09-Dec-15 15:12 42.935463 -78.730000 313 730ft 0kts
09-Dec-15 15:13 42.935463 -78.730000 313 730ft 0kts
09-Dec-15 15:14 42.935463 -78.730000 313 730ft 0kts
09-Dec-15 15:15 42.935463 -78.730000 313 730ft 0kts
09-Dec-15 15:16 42.935463 -78.730000 313 730ft 0kts
09-Dec-15 15:17 42.935463 -78.730000 313 730ft 0kts
09-Dec-15 15:18 42.935463 -78.730000 313 730ft 0kts
09-Dec-15 15:19 42.935463 -78.730000 313 730ft 0kts
09-Dec-15 15:20 42.935463 -78.730000 313 730ft 0kts
09-Dec-15 15:21 42.935463 -78.730000 313 730ft 0kts
09-Dec-15 15:22 42.935463 -78.730000 313 730ft 0kts
09-Dec-15 15:23 42.935463 -78.730000 313 730ft 0kts
09-Dec-15 15:24 42.935463 -78.730000 313 730ft 0kts
09-Dec-15 15:25 42.935463 -78.730000 313 730ft 0kts
09-Dec-15 15:26 42.935463 -78.730000 313 730ft 0kts
09-Dec-15 15:27 42.935463 -78.730000 313 730ft 0kts
09-Dec-15 15:28 42.935463 -78.730000 313 730ft 0kts
09-Dec-15 15:29 42.935463 -78.730000 313 730ft 0kts
09-Dec-15 15:30 42.935463 -78.730000 313 730ft 0kts
09-Dec-15 15:31 42.935463 -78.730000 313 730ft 0kts
09-Dec-15 15:32 42.935463 -78.730000 313 730ft 0kts
09-Dec-15 15:33 42.935463 -78.730000 313 730ft 0kts
09-Dec-15 15:34 42.935463 -78.730000 313 730ft 0kts
09-Dec-15 15:35 42.935463 -78.730000 313 730ft 0kts
09-Dec-15 15:36 42.935463 -78.730000 313 730ft 0kts
09-Dec-15 15:37 42.935463 -78.730000 313 730ft 0kts
09-Dec-15 15:38 42.935463 -78.730000 313 730ft 0kts
09-Dec-15 15:39 42.935463 -78.730000 313 730ft 0kts
09-Dec-15 15:40 42.935510 -78.729755 52 730ft 4kts
09-Dec-15 15:41 42.937377 -78.727386 3 730ft 12kts
09-Dec-15 15:42 42.939270 -78.728959 36 730ft 9kts
09-Dec-15 15:43 42.941806 -78.725671 43 730ft 10kts
09-Dec-15 15:44 42.944390 -78.722288 42 730ft 15kts
09-Dec-15 15:45 42.948057 -78.718417 319 730ft 10kts
09-Dec-15 15:46 42.934769 -78.737555 225 1324ft 142kts
09-Dec-15 15:47 42.902076 -78.785317 224 2889ft 223kts
09-Dec-15 15:48 42.843663 -78.823066 163 5546ft 259kts
09-Dec-15 15:49 42.779994 -78.774755 146 8588ft 274kts
09-Dec-15 15:50 42.713830 -78.712421 147 10315ft 326kts
09-Dec-15 15:51 42.623630 -78.683344 178 13150ft 330kts
09-Dec-15 15:52 42.532193 -78.672382 178 15794ft 338kts
09-Dec-15 15:53 42.453638 -78.663273 179 17833ft 345kts
09-Dec-15 15:54 42.356875 -78.652099 179 20110ft 355kts
09-Dec-15 15:55 42.257574 -78.640665 178 22167ft 365kts
09-Dec-15 15:56 42.156106 -78.629010 179 24479ft 363kts
09-Dec-15 15:57 42.056766 -78.625811 182 26683ft 355kts
09-Dec-15 15:58 41.959363 -78.623531 182 28629ft 350kts
09-Dec-15 15:59 41.871164 -78.621481 182 30472ft 340kts
09-Dec-15 16:00 41.779620 -78.611743 157 32336ft 341kts
09-Dec-15 16:01 41.706662 -78.552359 155 33658ft 338kts
09-Dec-15 16:02 41.627404 -78.485977 155 34811ft 334kts
09-Dec-15 16:03 41.549844 -78.421122 155 34899ft 331kts
09-Dec-15 16:04 41.471641 -78.355933 155 34924ft 340kts
09-Dec-15 16:05 41.388863 -78.286655 155 34946ft 367kts
09-Dec-15 16:06 41.300699 -78.213531 155 34954ft 379kts
09-Dec-15 16:07 41.211270 -78.141042 164 34950ft 370kts
09-Dec-15 16:08 41.115546 -78.092620 165 34968ft 371kts
09-Dec-15 16:09 41.019043 -78.044155 165 34975ft 371kts
09-Dec-15 16:10 40.922645 -77.995911 162 34976ft 372kts
09-Dec-15 16:11 40.841643 -77.907384 147 34997ft 388kts
09-Dec-15 16:12 40.760273 -77.814629 147 34996ft 387kts
09-Dec-15 16:13 40.678646 -77.721899 147 34995ft 387kts
09-Dec-15 16:14 40.597329 -77.629830 147 34994ft 387kts
09-Dec-15 16:15 40.515509 -77.537501 147 34993ft 387kts
09-Dec-15 16:16 40.433755 -77.445543 147 35008ft 387kts
09-Dec-15 16:17 40.352583 -77.354518 147 35032ft 383kts
09-Dec-15 16:18 40.273687 -77.265824 149 34750ft 366kts
09-Dec-15 16:19 40.197153 -77.180657 149 34078ft 365kts
09-Dec-15 16:20 40.119517 -77.094453 149 33400ft 368kts
09-Dec-15 16:21 40.041329 -77.007906 149 32685ft 370kts
09-Dec-15 16:22 39.960954 -76.919251 148 31201ft 390kts
09-Dec-15 16:23 39.879799 -76.829938 148 29789ft 388kts
09-Dec-15 16:24 39.798131 -76.740376 148 27917ft 381kts
09-Dec-15 16:25 39.718098 -76.652909 148 26352ft 374kts
09-Dec-15 16:26 39.627177 -76.621333 185 24834ft 340kts
09-Dec-15 16:27 39.535178 -76.628537 186 23590ft 334kts
09-Dec-15 16:28 39.443683 -76.636793 186 22434ft 329kts
09-Dec-15 16:29 39.353321 -76.644963 186 21375ft 325kts
09-Dec-15 16:30 39.264154 -76.653004 186 20447ft 320kts
09-Dec-15 16:31 39.177915 -76.662736 201 19012ft 306kts
09-Dec-15 16:32 39.113516 -76.729960 220 15191ft 298kts
09-Dec-15 16:33 39.053541 -76.800627 220 13562ft 283kts
09-Dec-15 16:34 38.999869 -76.863876 221 11492ft 252kts
09-Dec-15 16:35 38.981626 -76.941718 283 9552ft 260kts
09-Dec-15 16:36 39.005260 -77.027729 287 7570ft 256kts
09-Dec-15 16:37 39.026429 -77.116126 287 5587ft 263kts
09-Dec-15 16:38 39.013232 -77.193799 191 3612ft 250kts
09-Dec-15 16:39 38.966650 -77.165399 91 3033ft 216kts
09-Dec-15 16:40 38.924929 -77.114250 151 2740ft 221kts
09-Dec-15 16:41 38.890797 -77.057223 129 1135ft 195kts
09-Dec-15 16:42 38.848981 -77.037514 176 21ft 55kts
09-Dec-15 16:43 38.847496 -77.039398 300 21ft 13kts
09-Dec-15 16:44 38.848126 -77.040339 308 21ft 0kts
09-Dec-15 16:45 38.848126 -77.040339 308 21ft 0kts
09-Dec-15 16:46 38.848126 -77.040339 308 21ft 0kts
09-Dec-15 16:53 38.856374 -77.043662 162 21ft 0kts
09-Dec-15 16:54 38.856374 -77.043662 162 21ft 0kts
09-Dec-15 16:55 38.856374 -77.043662 162 21ft 0kts
09-Dec-15 16:56 38.856374 -77.043662 162 21ft 0kts
09-Dec-15 16:57 38.856374 -77.043662 162 21ft 0kts

Navigation Log

Ident Type
Flight plan parsing failed, navigation log unavailable